createdAt,value
2022-09-12T00:01:25.662Z,10.06
2022-09-12T00:04:00.158Z,10.00
2022-09-12T00:06:36.788Z,10.15
2022-09-12T00:09:10.699Z,10.07
2022-09-12T00:11:45.489Z,10.05
2022-09-12T00:14:18.486Z,10.05
2022-09-12T00:16:46.758Z,9.93
2022-09-12T00:19:16.827Z,9.91
2022-09-12T00:21:44.495Z,9.93
2022-09-12T00:24:12.243Z,10.00
2022-09-12T00:26:40.222Z,10.01
2022-09-12T00:29:07.817Z,10.04
2022-09-12T00:31:35.729Z,9.91
2022-09-12T00:34:03.368Z,9.92
2022-09-12T00:36:31.554Z,9.92
2022-09-12T00:38:59.726Z,9.97
2022-09-12T00:41:27.127Z,9.98
2022-09-12T00:44:11.927Z,9.93
2022-09-12T00:46:59.842Z,9.97
2022-09-12T00:49:27.234Z,9.98
2022-09-12T00:52:08.500Z,10.11
2022-09-12T00:54:47.563Z,10.02
2022-09-12T00:57:20.848Z,10.01
2022-09-12T00:59:58.405Z,10.02
2022-09-12T01:02:27.618Z,9.97
2022-09-12T01:04:56.037Z,9.87
2022-09-12T01:07:24.065Z,9.95
2022-09-12T01:09:52.231Z,9.90
2022-09-12T01:12:20.639Z,9.93
2022-09-12T01:14:48.193Z,9.93
2022-09-12T01:17:16.899Z,9.94
2022-09-12T01:20:12.382Z,10.00
2022-09-12T01:23:16.826Z,9.94
2022-09-12T01:26:16.260Z,9.96
2022-09-12T01:29:11.168Z,9.89
2022-09-12T01:32:00.336Z,9.87
2022-09-12T01:35:07.254Z,9.85
2022-09-12T01:38:03.620Z,9.79
2022-09-12T01:40:51.529Z,9.90
2022-09-12T01:43:48.301Z,9.89
2022-09-12T01:46:24.763Z,9.75
2022-09-12T01:49:07.522Z,9.81
2022-09-12T01:52:11.108Z,9.81
2022-09-12T01:55:09.944Z,9.74
2022-09-12T01:58:00.662Z,9.78
2022-09-12T02:00:28.084Z,9.73
2022-09-12T02:03:13.777Z,9.82
2022-09-12T02:05:57.025Z,9.79
2022-09-12T02:08:38.754Z,9.76
2022-09-12T02:11:12.273Z,9.79
2022-09-12T02:13:52.417Z,9.73
2022-09-12T02:16:37.200Z,9.73
2022-09-12T02:19:23.430Z,9.86
2022-09-12T02:21:56.034Z,9.80
2022-09-12T02:24:36.106Z,9.78
2022-09-12T02:27:21.209Z,9.75
2022-09-12T02:29:50.056Z,9.82
2022-09-12T02:32:35.321Z,9.82
2022-09-12T02:35:13.918Z,9.72
2022-09-12T02:38:02.220Z,9.76
2022-09-12T02:40:32.481Z,9.88
2022-09-12T02:43:01.074Z,9.84
2022-09-12T02:45:29.601Z,9.73
2022-09-12T02:48:09.118Z,9.71
2022-09-12T02:50:38.341Z,9.78
2022-09-12T02:53:09.361Z,9.78
2022-09-12T02:55:40.262Z,9.69
2022-09-12T02:58:17.071Z,9.87
2022-09-12T03:01:05.846Z,9.81
2022-09-12T03:04:07.542Z,9.94
2022-09-12T03:06:52.923Z,9.90
2022-09-12T03:09:32.167Z,10.00
2022-09-12T03:12:31.018Z,9.95
2022-09-12T03:15:36.609Z,10.04
2022-09-12T03:18:45.907Z,10.03
2022-09-12T03:21:48.351Z,9.97
2022-09-12T03:24:33.088Z,9.97
2022-09-12T03:27:30.100Z,10.00
2022-09-12T03:29:58.613Z,9.97
2022-09-12T03:32:46.489Z,9.86
2022-09-12T03:35:18.857Z,9.92
2022-09-12T03:37:51.773Z,9.86
2022-09-12T03:40:20.140Z,9.89
2022-09-12T03:42:48.152Z,9.92
2022-09-12T03:45:16.705Z,9.91
2022-09-12T03:47:44.302Z,9.86
2022-09-12T03:50:11.850Z,9.84
2022-09-12T03:52:39.705Z,9.86
2022-09-12T03:55:07.759Z,9.75
2022-09-12T03:57:35.392Z,9.82
2022-09-12T04:00:05.590Z,9.78
2022-09-12T04:02:40.144Z,9.73
2022-09-12T04:05:08.347Z,9.79
2022-09-12T04:07:35.836Z,9.76
2022-09-12T04:10:04.069Z,9.75
2022-09-12T04:12:31.873Z,9.75
2022-09-12T04:14:59.397Z,9.65
2022-09-12T04:17:27.005Z,9.68
2022-09-12T04:19:54.717Z,9.71
2022-09-12T04:22:22.272Z,9.75
2022-09-12T04:24:49.808Z,9.67
2022-09-12T04:27:17.844Z,9.67
2022-09-12T04:29:45.471Z,9.80
2022-09-12T04:32:13.154Z,9.78
2022-09-12T04:34:40.977Z,9.84
2022-09-12T04:37:08.678Z,9.82
2022-09-12T04:39:36.300Z,9.92
2022-09-12T04:42:04.759Z,9.88
2022-09-12T04:44:32.342Z,9.97
2022-09-12T04:46:59.899Z,10.02
2022-09-12T04:49:27.758Z,9.87
2022-09-12T04:51:55.322Z,9.87
2022-09-12T04:54:22.937Z,9.96
2022-09-12T04:56:52.574Z,10.01
2022-09-12T04:59:22.492Z,10.07
2022-09-12T05:01:50.442Z,10.21
2022-09-12T05:04:18.776Z,10.29
2022-09-12T05:06:47.527Z,10.39
2022-09-12T05:09:15.926Z,10.50
2022-09-12T05:14:34.224Z,10.64
2022-09-12T05:17:02.768Z,10.77
2022-09-12T05:19:32.066Z,10.83
2022-09-12T05:22:00.571Z,10.95
2022-09-12T05:24:28.836Z,11.08
2022-09-12T05:26:56.801Z,11.11
2022-09-12T05:29:25.632Z,11.21
2022-09-12T05:31:53.501Z,11.30
2022-09-12T05:34:22.081Z,11.40
2022-09-12T05:36:49.780Z,11.59
2022-09-12T05:39:18.722Z,11.76
2022-09-12T05:41:47.389Z,11.87
2022-09-12T05:44:15.658Z,11.90
2022-09-12T05:46:46.733Z,12.00
2022-09-12T05:49:14.789Z,11.99
2022-09-12T05:51:45.639Z,12.17
2022-09-12T05:54:19.501Z,12.21
2022-09-12T05:56:49.374Z,12.19
2022-09-12T05:59:21.559Z,12.24
2022-09-12T06:01:52.569Z,12.31
2022-09-12T06:04:21.253Z,12.45
2022-09-12T06:06:49.246Z,12.60
2022-09-12T06:09:17.837Z,12.65
2022-09-12T06:11:46.989Z,12.67
2022-09-12T06:14:18.099Z,12.78
2022-09-12T06:16:47.453Z,12.91
2022-09-12T06:19:20.848Z,12.96
2022-09-12T06:21:50.392Z,13.04
2022-09-12T06:24:19.430Z,13.09
2022-09-12T06:26:49.961Z,13.12
2022-09-12T06:29:19.279Z,13.11
2022-09-12T06:31:47.549Z,13.21
2022-09-12T06:34:16.753Z,13.44
2022-09-12T06:36:48.705Z,13.52
2022-09-12T06:39:22.777Z,13.64
2022-09-12T06:41:52.118Z,13.63
2022-09-12T06:44:30.224Z,13.79
2022-09-12T06:46:58.807Z,13.59
2022-09-12T06:49:26.523Z,13.71
2022-09-12T06:51:54.324Z,13.90
2022-09-12T06:54:23.386Z,13.90
2022-09-12T06:56:50.815Z,13.78
2022-09-12T06:59:18.705Z,13.88
2022-09-12T07:01:46.495Z,14.00
2022-09-12T07:04:14.491Z,13.99
2022-09-12T07:06:44.965Z,14.40
2022-09-12T07:09:18.388Z,14.15
2022-09-12T07:11:46.988Z,14.57
2022-09-12T07:14:15.456Z,14.44
2022-09-12T07:16:43.578Z,14.54
2022-09-12T07:19:12.331Z,14.46
2022-09-12T07:21:41.672Z,14.63
2022-09-12T07:24:12.548Z,14.63
2022-09-12T07:26:44.987Z,14.75
2022-09-12T07:32:06.889Z,14.57
2022-09-12T07:34:35.773Z,15.02
2022-09-12T07:37:03.968Z,14.90
2022-09-12T07:39:32.394Z,14.84
2022-09-12T07:42:00.573Z,14.91
2022-09-12T07:44:29.982Z,14.99
2022-09-12T07:46:57.857Z,15.24
2022-09-12T07:49:26.062Z,15.18
2022-09-12T07:51:54.108Z,15.26
2022-09-12T07:54:22.383Z,15.38
2022-09-12T07:56:50.181Z,15.32
2022-09-12T07:59:35.316Z,15.54
2022-09-12T08:02:06.029Z,15.67
2022-09-12T08:04:34.410Z,15.99
2022-09-12T08:07:01.974Z,16.03
2022-09-12T08:09:30.014Z,16.30
2022-09-12T08:11:57.879Z,16.41
2022-09-12T08:14:25.715Z,16.07
2022-09-12T08:16:53.694Z,16.21
2022-09-12T08:19:22.860Z,16.08
2022-09-12T08:21:50.729Z,16.03
2022-09-12T08:24:18.432Z,16.06
2022-09-12T08:26:46.243Z,16.13
2022-09-12T08:29:14.014Z,16.29
2022-09-12T08:31:42.621Z,16.47
2022-09-12T08:34:10.272Z,15.33
2022-09-12T08:36:37.932Z,15.27
2022-09-12T08:39:07.955Z,15.50
2022-09-12T08:41:43.531Z,15.84
2022-09-12T08:44:29.605Z,16.58
2022-09-12T08:47:32.962Z,16.02
2022-09-12T08:50:22.560Z,15.79
2022-09-12T08:52:58.182Z,15.42
2022-09-12T08:55:37.037Z,15.96
2022-09-12T08:58:20.972Z,16.28
2022-09-12T09:01:30.354Z,15.58
2022-09-12T09:04:17.929Z,15.88
2022-09-12T09:07:17.014Z,16.02
2022-09-12T09:10:20.091Z,15.92
2022-09-12T09:13:08.939Z,15.65
2022-09-12T09:16:01.920Z,15.62
2022-09-12T09:18:35.405Z,16.31
2022-09-12T09:21:23.927Z,16.82
2022-09-12T09:24:10.225Z,16.93
2022-09-12T09:27:39.448Z,15.95
2022-09-12T09:30:06.119Z,16.52
2022-09-12T09:32:41.096Z,16.06
2022-09-12T09:35:42.651Z,15.76
2022-09-12T09:39:16.357Z,15.66
2022-09-12T09:42:17.152Z,16.81
2022-09-12T09:44:49.132Z,17.38
2022-09-12T09:47:19.868Z,16.54
2022-09-12T09:49:47.728Z,16.07
2022-09-12T09:52:25.139Z,15.64
2022-09-12T09:55:00.288Z,15.50
2022-09-12T09:57:37.240Z,17.57
2022-09-12T10:00:27.150Z,17.84
2022-09-12T10:03:23.239Z,17.54
2022-09-12T10:05:55.415Z,17.70
2022-09-12T10:08:36.743Z,16.51
2022-09-12T10:11:23.007Z,16.06
2022-09-12T10:14:01.397Z,16.63
2022-09-12T10:16:33.326Z,17.21
2022-09-12T10:19:04.285Z,17.40
2022-09-12T10:21:46.245Z,17.01
2022-09-12T10:24:25.200Z,17.17
2022-09-12T10:27:06.000Z,17.50
2022-09-12T10:29:46.034Z,18.74
2022-09-12T10:32:30.709Z,16.68
2022-09-12T10:35:17.762Z,16.53
2022-09-12T10:38:26.442Z,18.64
2022-09-12T10:41:10.376Z,19.00
2022-09-12T10:43:41.616Z,18.43
2022-09-12T10:46:18.570Z,19.06
2022-09-12T10:48:49.971Z,18.23
2022-09-12T10:51:29.640Z,19.60
2022-09-12T10:54:03.707Z,19.10
2022-09-12T10:56:47.307Z,17.56
2022-09-12T10:59:45.429Z,17.40
2022-09-12T11:02:21.826Z,17.96
2022-09-12T11:05:22.739Z,17.92
2022-09-12T11:08:03.130Z,16.94
2022-09-12T11:10:44.912Z,16.88
2022-09-12T11:13:21.327Z,16.74
2022-09-12T11:16:23.373Z,16.30
2022-09-12T11:19:04.191Z,17.28
2022-09-12T11:22:16.099Z,19.15
2022-09-12T11:25:08.194Z,19.27
2022-09-12T11:28:13.708Z,18.76
2022-09-12T11:31:22.630Z,17.33
2022-09-12T11:33:56.864Z,17.27
2022-09-12T11:36:42.881Z,17.24
2022-09-12T11:39:17.722Z,17.54
2022-09-12T11:42:00.657Z,17.91
2022-09-12T11:44:56.215Z,18.89
2022-09-12T11:47:28.939Z,18.34
2022-09-12T11:49:59.965Z,19.11
2022-09-12T11:52:38.954Z,19.25
2022-09-12T11:55:18.551Z,18.31
2022-09-12T11:57:56.335Z,17.74
2022-09-12T12:00:39.319Z,17.04
2022-09-12T12:03:07.084Z,17.79
2022-09-12T12:05:54.514Z,18.80
2022-09-12T12:08:26.465Z,20.08
2022-09-12T12:11:02.011Z,19.13
2022-09-12T12:13:34.764Z,19.32
2022-09-12T12:16:16.023Z,20.73
2022-09-12T12:18:44.711Z,19.33
2022-09-12T12:21:45.814Z,18.76
2022-09-12T12:24:25.400Z,18.29
2022-09-12T12:27:04.821Z,17.72
2022-09-12T12:29:41.583Z,17.53
2022-09-12T12:32:11.208Z,17.84
2022-09-12T12:34:47.835Z,18.60
2022-09-12T12:37:20.313Z,18.99
2022-09-12T12:39:53.908Z,18.22
2022-09-12T12:42:34.336Z,18.70
2022-09-12T12:45:23.725Z,18.91
2022-09-12T12:48:10.454Z,19.65
2022-09-12T12:50:39.405Z,19.09
2022-09-12T12:53:28.377Z,18.41
2022-09-12T12:55:57.663Z,17.80
2022-09-12T12:58:39.801Z,17.89
2022-09-12T13:01:12.580Z,17.78
2022-09-12T13:03:53.264Z,18.44
2022-09-12T13:06:42.361Z,17.90
2022-09-12T13:09:33.380Z,17.53
2022-09-12T13:12:17.502Z,17.91
2022-09-12T13:14:56.652Z,17.58
2022-09-12T13:17:43.843Z,18.03
2022-09-12T13:20:33.508Z,17.76
2022-09-12T13:23:01.999Z,17.29
2022-09-12T13:25:37.015Z,17.89
2022-09-12T13:28:10.903Z,17.61
2022-09-12T13:31:07.832Z,18.04
2022-09-12T13:33:49.760Z,18.37
2022-09-12T13:36:47.052Z,18.34
2022-09-12T13:39:19.221Z,18.01
2022-09-12T13:42:34.895Z,18.26
2022-09-12T13:45:15.095Z,18.15
2022-09-12T13:47:47.082Z,18.55
2022-09-12T13:50:32.071Z,18.18
2022-09-12T13:53:06.883Z,17.68
2022-09-12T13:55:43.563Z,18.35
2022-09-12T13:58:31.960Z,18.48
2022-09-12T14:01:10.656Z,18.35
2022-09-12T14:04:31.809Z,18.31
2022-09-12T14:07:03.947Z,18.03
2022-09-12T14:09:43.718Z,18.61
2022-09-12T14:12:34.980Z,18.06
2022-09-12T14:15:03.927Z,18.17
2022-09-12T14:17:37.257Z,18.29
2022-09-12T14:20:25.008Z,18.17
2022-09-12T14:22:54.161Z,18.26
2022-09-12T14:25:26.116Z,18.14
2022-09-12T14:27:57.263Z,17.40
2022-09-12T14:30:37.375Z,18.00
2022-09-12T14:33:10.667Z,18.39
2022-09-12T14:35:43.847Z,19.33
2022-09-12T14:38:17.366Z,18.37
2022-09-12T14:40:48.750Z,18.12
2022-09-12T14:43:26.731Z,18.66
2022-09-12T14:46:22.563Z,18.61
2022-09-12T14:49:10.936Z,18.99
2022-09-12T14:51:55.758Z,18.36
2022-09-12T14:54:44.674Z,17.94
2022-09-12T14:57:40.680Z,18.23
2022-09-12T15:00:20.935Z,18.36
2022-09-12T15:02:51.048Z,18.37
2022-09-12T15:05:26.506Z,18.28
2022-09-12T15:08:01.049Z,18.17
2022-09-12T15:10:36.131Z,17.67
2022-09-12T15:13:14.551Z,17.53
2022-09-12T15:16:00.584Z,18.22
2022-09-12T15:18:29.399Z,17.99
2022-09-12T15:21:02.499Z,17.87
2022-09-12T15:23:38.308Z,17.63
2022-09-12T15:26:07.286Z,17.57
2022-09-12T15:28:35.917Z,17.82
2022-09-12T15:31:24.272Z,17.74
2022-09-12T15:33:53.147Z,17.52
2022-09-12T15:36:23.482Z,16.97
2022-09-12T15:38:52.800Z,17.28
2022-09-12T15:41:27.880Z,16.72
2022-09-12T15:43:56.945Z,16.78
2022-09-12T15:46:25.285Z,17.02
2022-09-12T15:48:53.362Z,16.84
2022-09-12T15:51:22.446Z,17.22
2022-09-12T15:53:51.939Z,17.06
2022-09-12T15:56:22.757Z,16.78
2022-09-12T15:58:59.851Z,16.63
2022-09-12T16:01:29.729Z,16.82
2022-09-12T16:03:58.499Z,16.90
2022-09-12T16:06:33.573Z,16.55
2022-09-12T16:09:04.127Z,16.30
2022-09-12T16:11:33.705Z,16.02
2022-09-12T16:14:02.719Z,16.00
2022-09-12T16:16:33.034Z,16.09
2022-09-12T16:19:02.170Z,16.20
2022-09-12T16:21:31.202Z,16.08
2022-09-12T16:24:00.432Z,15.87
2022-09-12T16:26:28.821Z,15.55
2022-09-12T16:28:59.506Z,15.60
2022-09-12T16:31:29.260Z,15.46
2022-09-12T16:33:57.630Z,15.34
2022-09-12T16:36:25.612Z,15.39
2022-09-12T16:38:55.024Z,15.10
2022-09-12T16:41:25.535Z,14.99
2022-09-12T16:43:54.936Z,14.82
2022-09-12T16:46:29.597Z,14.79
2022-09-12T16:48:59.449Z,14.79
2022-09-12T16:51:33.820Z,14.55
2022-09-12T16:54:02.599Z,14.29
2022-09-12T16:56:30.841Z,14.54
2022-09-12T16:58:59.168Z,14.33
2022-09-12T17:01:27.959Z,14.21
2022-09-12T17:03:58.683Z,13.90
2022-09-12T17:06:28.642Z,13.80
2022-09-12T17:09:01.452Z,14.00
2022-09-12T17:11:34.153Z,13.60
2022-09-12T17:14:06.946Z,13.77
2022-09-12T17:16:42.435Z,13.76
2022-09-12T17:19:18.218Z,13.64
2022-09-12T17:21:48.932Z,13.62
2022-09-12T17:24:18.920Z,13.40
2022-09-12T17:26:48.050Z,13.41
2022-09-12T17:29:17.762Z,13.25
2022-09-12T17:31:47.936Z,13.03
2022-09-12T17:34:18.057Z,13.26
2022-09-12T17:36:48.613Z,13.14
2022-09-12T17:39:17.501Z,13.05
2022-09-12T17:41:46.907Z,12.79
2022-09-12T17:44:16.595Z,12.86
2022-09-12T17:46:46.674Z,12.79
2022-09-12T17:49:19.252Z,12.76
2022-09-12T17:51:49.373Z,12.68
2022-09-12T17:54:21.835Z,12.54
2022-09-12T17:56:51.710Z,12.34
2022-09-12T17:59:23.651Z,12.65
2022-09-12T18:02:11.109Z,12.54
2022-09-12T18:04:46.461Z,12.44
2022-09-12T18:07:18.989Z,12.53
2022-09-12T18:09:48.172Z,12.43
2022-09-12T18:12:19.135Z,12.65
2022-09-12T18:14:47.555Z,12.64
2022-09-12T18:17:16.233Z,12.43
2022-09-12T18:19:45.466Z,12.52
2022-09-12T18:22:14.020Z,12.19
2022-09-12T18:24:42.272Z,12.13
2022-09-12T18:27:10.875Z,12.07
2022-09-12T18:29:38.971Z,12.02
2022-09-12T18:32:07.321Z,12.18
2022-09-12T18:34:35.832Z,11.99
2022-09-12T18:37:05.883Z,11.98
2022-09-12T18:39:34.147Z,12.07
2022-09-12T18:42:02.725Z,12.19
2022-09-12T18:44:31.633Z,11.83
2022-09-12T18:47:04.812Z,11.87
2022-09-12T18:49:34.662Z,12.00
2022-09-12T18:52:07.318Z,11.98
2022-09-12T18:54:37.831Z,11.73
2022-09-12T18:57:06.976Z,11.77
2022-09-12T18:59:36.114Z,11.66
2022-09-12T19:02:06.122Z,11.65
2022-09-12T19:04:35.246Z,11.77
2022-09-12T19:07:04.427Z,11.91
2022-09-12T19:09:34.404Z,11.54
2022-09-12T19:12:03.260Z,11.44
2022-09-12T19:14:31.201Z,11.54
2022-09-12T19:16:59.262Z,11.44
2022-09-12T19:19:27.566Z,11.68
2022-09-12T19:21:56.850Z,11.71
2022-09-12T19:24:25.985Z,11.59
2022-09-12T19:26:54.472Z,11.69
2022-09-12T19:29:22.924Z,11.65
2022-09-12T19:31:53.028Z,11.58
2022-09-12T19:34:21.799Z,11.49
2022-09-12T19:36:49.936Z,11.64
2022-09-12T19:39:19.968Z,11.54
2022-09-12T19:41:49.680Z,11.33
2022-09-12T19:44:19.406Z,11.42
2022-09-12T19:46:48.511Z,11.48
2022-09-12T19:49:20.153Z,11.39
2022-09-12T19:51:49.053Z,11.30
2022-09-12T19:54:21.099Z,11.59
2022-09-12T19:56:49.426Z,11.42
2022-09-12T19:59:17.850Z,11.05
2022-09-12T20:01:47.724Z,11.19
2022-09-12T20:04:17.534Z,11.23
2022-09-12T20:06:45.767Z,11.11
2022-09-12T20:09:14.525Z,11.05
2022-09-12T20:11:42.544Z,11.31
2022-09-12T20:14:10.589Z,11.14
2022-09-12T20:16:39.204Z,11.11
2022-09-12T20:19:08.634Z,10.97
2022-09-12T20:21:37.952Z,11.16
2022-09-12T20:24:13.936Z,11.23
2022-09-12T20:26:44.050Z,11.15
2022-09-12T20:29:12.669Z,11.14
2022-09-12T20:31:42.882Z,11.10
2022-09-12T20:34:18.811Z,11.08
2022-09-12T20:36:47.771Z,11.14
2022-09-12T20:39:20.073Z,11.22
2022-09-12T20:41:48.693Z,11.22
2022-09-12T20:44:17.359Z,11.16
2022-09-12T20:46:45.569Z,11.13
2022-09-12T20:49:13.595Z,11.04
2022-09-12T20:51:41.333Z,10.96
2022-09-12T20:54:11.099Z,11.10
2022-09-12T20:56:39.193Z,11.02
2022-09-12T20:59:07.388Z,10.75
2022-09-12T21:01:35.287Z,10.82
2022-09-12T21:04:04.227Z,10.63
2022-09-12T21:06:32.684Z,10.50
2022-09-12T21:09:00.820Z,10.51
2022-09-12T21:11:29.742Z,10.34
2022-09-12T21:14:01.628Z,10.38
2022-09-12T21:16:29.760Z,10.14
2022-09-12T21:18:59.710Z,10.39
2022-09-12T21:21:27.924Z,10.32
2022-09-12T21:24:02.909Z,10.40
2022-09-12T21:26:31.822Z,10.28
2022-09-12T21:29:00.369Z,10.22
2022-09-12T21:31:28.869Z,10.14
2022-09-12T21:33:57.102Z,10.14
2022-09-12T21:36:26.133Z,10.07
2022-09-12T21:38:58.307Z,10.14
2022-09-12T21:41:26.931Z,10.26
2022-09-12T21:43:54.716Z,10.33
2022-09-12T21:46:22.457Z,10.29
2022-09-12T21:48:50.800Z,10.35
2022-09-12T21:51:19.201Z,10.17
2022-09-12T21:53:47.703Z,9.96
2022-09-12T21:56:16.290Z,9.91
2022-09-12T21:58:44.289Z,9.91
2022-09-12T22:01:13.059Z,10.05
2022-09-12T22:03:43.270Z,9.73
2022-09-12T22:06:11.945Z,9.75
2022-09-12T22:08:40.080Z,9.65
2022-09-12T22:11:10.241Z,9.34
2022-09-12T22:13:42.859Z,9.32
2022-09-12T22:16:11.799Z,9.18
2022-09-12T22:18:40.226Z,9.22
2022-09-12T22:21:15.571Z,9.39
2022-09-12T22:24:02.108Z,9.28
2022-09-12T22:26:32.318Z,9.15
2022-09-12T22:29:01.099Z,9.24
2022-09-12T22:31:28.847Z,9.16
2022-09-12T22:33:57.252Z,9.22
2022-09-12T22:36:30.478Z,9.22
2022-09-12T22:39:00.308Z,9.05
2022-09-12T22:41:28.649Z,9.14
2022-09-12T22:43:57.979Z,9.14
2022-09-12T22:46:26.237Z,9.04
2022-09-12T22:48:55.744Z,8.92
2022-09-12T22:51:23.769Z,8.83
2022-09-12T22:53:51.737Z,8.74
2022-09-12T22:56:19.614Z,8.94
2022-09-12T22:58:47.476Z,8.87
2022-09-12T23:01:15.525Z,8.80
2022-09-12T23:03:43.313Z,8.62
2022-09-12T23:06:11.840Z,8.51
2022-09-12T23:08:40.129Z,8.83
2022-09-12T23:11:10.924Z,9.00
2022-09-12T23:13:42.172Z,9.02
2022-09-12T23:16:21.354Z,8.96
2022-09-12T23:18:49.749Z,9.08
2022-09-12T23:21:21.332Z,8.70
2022-09-12T23:23:49.675Z,8.54
2022-09-12T23:26:24.543Z,8.76
2022-09-12T23:29:00.528Z,8.67
2022-09-12T23:31:33.490Z,8.73
2022-09-12T23:34:06.020Z,8.74
2022-09-12T23:36:34.374Z,8.80
2022-09-12T23:39:02.354Z,8.74
2022-09-12T23:41:30.193Z,8.80
2022-09-12T23:43:58.145Z,8.93
2022-09-12T23:46:25.864Z,9.09
2022-09-12T23:48:53.673Z,8.93
2022-09-12T23:51:22.169Z,8.76
2022-09-12T23:53:50.161Z,8.65
2022-09-12T23:56:17.797Z,8.56
2022-09-12T23:58:45.471Z,8.74
